Time;durP1;ratioP1;P1;durP2;ratioP2;P2;SDS_P1;SDS_P2;PMS_P1;PMS_P2;Temp;Humidity;BMP_temperature;BMP_pressure;BME280_temperature;BME280_humidity;BME280_pressure;Samples;Min_cycle;Max_cycle;Signal;HPM_P1;HPM_P2
2023/02/08 00:02:26;;;;;;;100.82;16.27;;;;;;;;;;6149082;23;20025;-67
2023/02/08 00:04:53;;;;;;;90.72;17.00;;;;;;;;;;6149409;23;20628;-61
2023/02/08 00:07:27;;;;;;;95.30;17.38;;;;;;;;;;6149068;23;20036;-67
2023/02/08 00:09:54;;;;;;;84.53;16.63;;;;;;;;;;6146373;23;20159;-68
2023/02/08 00:12:22;;;;;;;88.65;15.98;;;;;;;;;;6149193;23;20028;-68
2023/02/08 00:14:56;;;;;;;97.20;17.00;;;;;;;;;;6149893;23;20096;-67
2023/02/08 00:17:23;;;;;;;87.45;17.15;;;;;;;;;;6147288;23;20025;-67
2023/02/08 00:20:04;;;;;;;101.43;18.15;;;;;;;;;;6148667;23;20065;-68
2023/02/08 00:22:31;;;;;;;97.10;17.63;;;;;;;;;;6148448;23;20028;-57
2023/02/08 00:25:06;;;;;;;86.40;17.67;;;;;;;;;;6148923;23;20021;-57
2023/02/08 00:27:33;;;;;;;94.60;18.35;;;;;;;;;;6148768;23;20068;-58
2023/02/08 00:30:00;;;;;;;107.75;18.13;;;;;;;;;;6147926;23;20032;-56
2023/02/08 00:32:34;;;;;;;90.25;20.25;;;;;;;;;;6147867;23;20031;-58
2023/02/08 00:35:01;;;;;;;104.43;17.52;;;;;;;;;;6148061;23;20634;-58
2023/02/08 00:37:35;;;;;;;110.40;19.50;;;;;;;;;;6148716;23;20104;-58
2023/02/08 00:40:04;;;;;;;91.95;19.58;;;;;;;;;;6147260;23;20021;-55
2023/02/08 00:42:31;;;;;;;97.68;18.67;;;;;;;;;;6148234;23;20053;-61
2023/02/08 00:45:05;;;;;;;102.65;19.55;;;;;;;;;;6149753;23;20029;-66
2023/02/08 00:47:33;;;;;;;107.95;20.35;;;;;;;;;;6147650;23;20018;-67
2023/02/08 00:50:00;;;;;;;109.88;20.13;;;;;;;;;;6148506;23;20025;-68
2023/02/08 00:52:34;;;;;;;84.82;18.25;;;;;;;;;;6147485;23;20562;-68
2023/02/08 00:55:01;;;;;;;91.95;19.35;;;;;;;;;;6148102;23;20105;-68
2023/02/08 00:57:28;;;;;;;110.97;19.65;;;;;;;;;;6147822;23;20618;-68
2023/02/08 01:00:03;;;;;;;99.55;18.67;;;;;;;;;;6148156;23;20096;-60
2023/02/08 01:02:30;;;;;;;93.32;18.52;;;;;;;;;;6147000;23;20710;-49
2023/02/08 01:05:04;;;;;;;90.22;19.38;;;;;;;;;;6147695;23;20584;-51
2023/02/08 01:07:32;;;;;;;103.35;19.38;;;;;;;;;;6147522;23;20108;-51
2023/02/08 01:09:59;;;;;;;90.53;18.83;;;;;;;;;;6146913;23;20100;-49
2023/02/08 01:12:33;;;;;;;106.00;20.23;;;;;;;;;;6147989;23;20025;-51
2023/02/08 01:15:00;;;;;;;87.57;19.83;;;;;;;;;;6149045;23;20026;-48
2023/02/08 01:17:28;;;;;;;78.97;17.83;;;;;;;;;;6147059;23;20068;-62
2023/02/08 01:20:01;;;;;;;73.07;18.35;;;;;;;;;;6148365;23;20053;-69
2023/02/08 01:22:29;;;;;;;97.80;19.35;;;;;;;;;;6147817;23;20472;-50
2023/02/08 01:25:03;;;;;;;104.60;18.73;;;;;;;;;;6147617;23;20033;-52
2023/02/08 01:27:30;;;;;;;91.22;20.60;;;;;;;;;;6146195;23;20132;-53
2023/02/08 01:29:57;;;;;;;80.65;18.35;;;;;;;;;;6147135;23;20133;-56
2023/02/08 01:32:31;;;;;;;83.57;19.20;;;;;;;;;;6147307;23;20072;-57
2023/02/08 01:34:58;;;;;;;82.25;18.05;;;;;;;;;;6148030;23;20068;-57
2023/02/08 01:37:25;;;;;;;85.45;17.85;;;;;;;;;;6147938;23;20112;-59
2023/02/08 01:39:59;;;;;;;77.82;17.67;;;;;;;;;;6146730;23;20026;-50
2023/02/08 01:42:26;;;;;;;103.38;19.27;;;;;;;;;;6148264;23;20092;-52
2023/02/08 01:45:16;;;;;;;85.05;17.65;;;;;;;;;;6148403;23;20021;-56
2023/02/08 01:47:44;;;;;;;78.88;18.23;;;;;;;;;;6147964;23;20037;-56
2023/02/08 01:50:19;;;;;;;82.22;19.17;;;;;;;;;;6147305;23;20489;-53
2023/02/08 01:52:47;;;;;;;92.10;17.70;;;;;;;;;;6147285;23;20018;-55
2023/02/08 01:55:22;;;;;;;89.63;18.38;;;;;;;;;;6148136;23;20025;-56
2023/02/08 01:57:51;;;;;;;97.80;20.48;;;;;;;;;;6120458;23;20474;-64
2023/02/08 02:00:26;;;;;;;82.25;17.58;;;;;;;;;;6146509;23;20056;-68
2023/02/08 02:02:53;;;;;;;92.35;19.70;;;;;;;;;;6149308;23;20025;-68
2023/02/08 02:05:47;;;;;;;91.40;20.60;;;;;;;;;;6123137;23;20032;-67
2023/02/08 02:08:14;;;;;;;76.32;18.30;;;;;;;;;;6146767;23;20017;-68
2023/02/08 02:10:49;;;;;;;91.80;19.23;;;;;;;;;;6148254;23;20112;-67
2023/02/08 02:13:18;;;;;;;78.22;19.85;;;;;;;;;;6147305;23;20021;-68
2023/02/08 02:15:46;;;;;;;79.97;18.35;;;;;;;;;;6145004;23;20316;-56
2023/02/08 02:18:31;;;;;;;82.68;19.08;;;;;;;;;;6145582;23;20120;-64
2023/02/08 02:21:21;;;;;;;88.43;19.00;;;;;;;;;;6148152;23;20071;-58
2023/02/08 02:24:05;;;;;;;90.55;18.48;;;;;;;;;;6148564;23;20108;-56
2023/02/08 02:26:51;;;;;;;93.82;19.15;;;;;;;;;;6146366;23;20028;-57
2023/02/08 02:29:25;;;;;;;86.63;19.77;;;;;;;;;;6146914;23;20053;-57
2023/02/08 02:32:24;;;;;;;94.53;19.40;;;;;;;;;;6148111;23;20032;-59
2023/02/08 02:35:01;;;;;;;102.60;20.13;;;;;;;;;;6092791;23;20026;-60
2023/02/08 02:37:43;;;;;;;79.85;17.73;;;;;;;;;;6144982;23;20029;-68
2023/02/08 02:40:17;;;;;;;;;;;;;;;;;;6148208;23;20021;-62
2023/02/08 02:46:19;;;;;;;104.05;19.50;;;;;;;;;;6146211;23;20022;-61
2023/02/08 02:48:57;;;;;;;127.47;21.20;;;;;;;;;;6094869;23;20056;-61
2023/02/08 02:51:45;;;;;;;94.32;21.05;;;;;;;;;;6148741;23;20022;-62
2023/02/08 02:54:20;;;;;;;105.68;21.63;;;;;;;;;;6150367;23;20025;-49
2023/02/08 02:57:00;;;;;;;106.35;21.98;;;;;;;;;;6149349;23;20025;-56
2023/02/08 02:59:28;;;;;;;128.00;22.55;;;;;;;;;;6148177;23;20475;-51
2023/02/08 03:02:03;;;;;;;112.28;23.55;;;;;;;;;;6149700;23;20108;-57
2023/02/08 03:04:32;;;;;;;120.55;23.50;;;;;;;;;;6148799;23;20384;-57
2023/02/08 03:07:06;;;;;;;107.63;22.83;;;;;;;;;;6148747;23;20130;-54
2023/02/08 03:09:42;;;;;;;126.47;24.02;;;;;;;;;;6147877;23;20097;-57
2023/02/08 03:12:25;;;;;;;99.82;21.48;;;;;;;;;;6150617;23;20031;-61
2023/02/08 03:14:55;;;;;;;91.13;22.20;;;;;;;;;;6148594;23;20083;-55
2023/02/08 03:18:08;;;;;;;101.53;22.03;;;;;;;;;;6147426;23;20348;-67
2023/02/08 03:20:40;;;;;;;93.18;20.10;;;;;;;;;;6128312;23;20256;-67
2023/02/08 03:23:21;;;;;;;113.10;22.35;;;;;;;;;;6149927;23;20064;-67
2023/02/08 03:26:06;;;;;;;98.20;22.27;;;;;;;;;;6148840;23;20026;-67
2023/02/08 03:28:44;;;;;;;104.78;22.33;;;;;;;;;;6123440;23;20633;-67
2023/02/08 03:31:11;;;;;;;104.72;22.15;;;;;;;;;;6149680;23;20489;-47
2023/02/08 03:33:48;;;;;;;78.85;16.25;;;;;;;;;;6148598;23;20398;-61
2023/02/08 03:36:27;;;;;;;99.90;20.85;;;;;;;;;;6148955;23;20032;-60
2023/02/08 03:39:04;;;;;;;99.30;20.83;;;;;;;;;;6148706;23;20622;-62
2023/02/08 03:41:33;;;;;;;79.93;18.88;;;;;;;;;;6148431;23;20101;-61
2023/02/08 03:44:09;;;;;;;71.15;19.50;;;;;;;;;;6148876;23;20418;-60
2023/02/08 03:46:46;;;;;;;71.88;17.05;;;;;;;;;;6148799;23;20093;-61
2023/02/08 03:49:14;;;;;;;75.97;16.05;;;;;;;;;;6148356;23;20097;-61
2023/02/08 03:51:48;;;;;;;70.00;17.30;;;;;;;;;;6147051;23;20104;-54
2023/02/08 03:54:17;;;;;;;63.33;17.08;;;;;;;;;;6150573;23;20096;-65
2023/02/08 03:56:57;;;;;;;70.35;18.00;;;;;;;;;;6149428;23;20100;-64
2023/02/08 03:59:27;;;;;;;76.57;19.05;;;;;;;;;;6147785;23;20053;-65
2023/02/08 04:02:02;;;;;;;73.73;16.07;;;;;;;;;;6147986;23;20025;-65
2023/02/08 04:04:31;;;;;;;81.45;18.17;;;;;;;;;;6148531;23;20487;-65
2023/02/08 04:07:05;;;;;;;93.32;20.27;;;;;;;;;;6147649;23;20116;-64
2023/02/08 04:09:32;;;;;;;108.63;19.73;;;;;;;;;;6147100;23;20530;-61
2023/02/08 04:12:07;;;;;;;78.68;20.88;;;;;;;;;;6149838;23;20061;-61
2023/02/08 04:14:34;;;;;;;;;;;;;;;;;;6148028;23;20534;-65
2023/02/08 04:17:01;;;;;;;103.53;18.05;;;;;;;;;;6148226;23;19920;-65
2023/02/08 04:19:35;;;;;;;89.95;19.77;;;;;;;;;;6147535;23;20021;-65
2023/02/08 04:22:02;;;;;;;122.05;22.13;;;;;;;;;;6147682;23;20656;-65
2023/02/08 04:24:36;;;;;;;95.18;19.85;;;;;;;;;;6148897;23;20066;-65
2023/02/08 04:27:03;;;;;;;83.60;19.75;;;;;;;;;;6148816;23;20337;-65
2023/02/08 04:29:32;;;;;;;101.10;21.08;;;;;;;;;;6147174;23;20022;-55
2023/02/08 04:32:10;;;;;;;77.45;19.20;;;;;;;;;;6148040;23;20108;-67
2023/02/08 04:34:37;;;;;;;76.88;20.30;;;;;;;;;;6148155;23;20067;-67
2023/02/08 04:37:11;;;;;;;89.88;18.13;;;;;;;;;;6148321;23;20125;-67
2023/02/08 04:39:38;;;;;;;72.38;19.98;;;;;;;;;;6147845;23;20061;-67
2023/02/08 04:42:06;;;;;;;72.82;19.50;;;;;;;;;;6148077;23;20041;-67
2023/02/08 04:44:39;;;;;;;82.30;19.58;;;;;;;;;;6148527;23;20478;-67
2023/02/08 04:47:06;;;;;;;98.30;19.83;;;;;;;;;;6148519;23;20561;-61
2023/02/08 04:49:40;;;;;;;85.22;19.90;;;;;;;;;;6147358;23;20021;-67
2023/02/08 04:52:20;;;;;;;82.28;19.63;;;;;;;;;;6148359;23;20025;-57
2023/02/08 04:54:54;;;;;;;82.63;20.33;;;;;;;;;;6148491;23;20058;-58
2023/02/08 04:57:28;;;;;;;91.57;21.50;;;;;;;;;;6147519;23;20092;-58
2023/02/08 05:00:02;;;;;;;88.35;21.67;;;;;;;;;;6147838;23;20024;-57
2023/02/08 05:02:29;;;;;;;78.35;21.02;;;;;;;;;;6148177;23;20542;-56
2023/02/08 05:04:57;;;;;;;67.90;21.08;;;;;;;;;;6149230;23;20026;-51
2023/02/08 05:07:30;;;;;;;92.25;21.50;;;;;;;;;;6147888;23;20032;-61
2023/02/08 05:09:57;;;;;;;83.70;21.77;;;;;;;;;;6148109;23;20669;-61
2023/02/08 05:12:31;;;;;;;98.65;21.88;;;;;;;;;;6148168;23;20100;-62
2023/02/08 05:14:58;;;;;;;97.22;21.17;;;;;;;;;;6149410;23;20060;-61
2023/02/08 05:17:25;;;;;;;84.32;21.65;;;;;;;;;;6148898;23;20033;-61
2023/02/08 05:20:06;;;;;;;78.95;20.17;;;;;;;;;;6146784;23;20367;-61
2023/02/08 05:22:34;;;;;;;71.40;20.23;;;;;;;;;;6121463;23;20057;-62
2023/02/08 05:25:07;;;;;;;82.65;21.40;;;;;;;;;;6147813;23;20057;-62
2023/02/08 05:27:35;;;;;;;77.90;19.98;;;;;;;;;;6146961;23;20105;-61
2023/02/08 05:30:02;;;;;;;80.05;20.08;;;;;;;;;;6146940;23;20100;-67
2023/02/08 05:32:36;;;;;;;75.70;21.02;;;;;;;;;;6147261;23;20088;-67
2023/02/08 05:35:03;;;;;;;62.95;19.13;;;;;;;;;;6145183;23;20100;-68
2023/02/08 05:37:37;;;;;;;75.88;21.25;;;;;;;;;;6143739;23;20637;-67
2023/02/08 05:40:04;;;;;;;78.57;21.02;;;;;;;;;;6144709;23;20370;-67
2023/02/08 05:42:32;;;;;;;58.63;20.00;;;;;;;;;;6144250;23;20109;-67
2023/02/08 05:45:05;;;;;;;71.55;19.33;;;;;;;;;;6145503;23;20096;-67
2023/02/08 05:47:32;;;;;;;55.28;19.35;;;;;;;;;;6145340;23;20108;-52
2023/02/08 05:50:06;;;;;;;70.10;19.27;;;;;;;;;;6147152;23;20067;-52
2023/02/08 05:52:33;;;;;;;63.35;17.65;;;;;;;;;;6145995;23;20101;-49
2023/02/08 05:55:07;;;;;;;72.07;17.63;;;;;;;;;;6148176;23;20017;-54
2023/02/08 05:57:35;;;;;;;59.17;19.30;;;;;;;;;;6147265;23;20025;-50
2023/02/08 06:00:09;;;;;;;72.63;19.52;;;;;;;;;;6147680;23;20028;-53
2023/02/08 06:02:36;;;;;;;65.13;20.40;;;;;;;;;;6146661;23;20033;-49
2023/02/08 06:05:10;;;;;;;65.43;18.77;;;;;;;;;;6147070;23;20097;-67
2023/02/08 06:07:37;;;;;;;62.47;18.98;;;;;;;;;;6146097;23;20065;-65
2023/02/08 06:10:05;;;;;;;72.80;19.00;;;;;;;;;;6140576;23;20764;-65
2023/02/08 06:12:38;;;;;;;58.38;17.98;;;;;;;;;;6144604;23;20471;-65
2023/02/08 06:15:05;;;;;;;76.03;21.05;;;;;;;;;;6147131;23;20443;-65
2023/02/08 06:17:46;;;;;;;67.00;17.85;;;;;;;;;;6146451;23;20025;-65
2023/02/08 06:20:20;;;;;;;72.20;21.17;;;;;;;;;;6146890;23;20029;-65
2023/02/08 06:22:55;;;;;;;83.38;21.98;;;;;;;;;;6147405;23;20612;-54
2023/02/08 06:25:22;;;;;;;64.60;20.75;;;;;;;;;;6148467;23;20032;-61
2023/02/08 06:27:49;;;;;;;68.93;22.15;;;;;;;;;;6146561;23;20026;-49
2023/02/08 06:30:23;;;;;;;83.20;23.27;;;;;;;;;;6147183;23;20101;-56
2023/02/08 06:32:51;;;;;;;79.75;23.58;;;;;;;;;;6148042;23;20346;-55
2023/02/08 06:35:25;;;;;;;80.13;24.85;;;;;;;;;;6147206;23;20153;-51
2023/02/08 06:37:52;;;;;;;88.63;23.05;;;;;;;;;;6146980;23;20033;-54
2023/02/08 06:40:19;;;;;;;79.28;23.50;;;;;;;;;;6148063;23;20096;-55
2023/02/08 06:42:53;;;;;;;99.60;23.98;;;;;;;;;;6147610;23;20026;-58
2023/02/08 06:45:20;;;;;;;92.32;22.58;;;;;;;;;;6147882;23;20104;-65
2023/02/08 06:47:54;;;;;;;96.13;26.67;;;;;;;;;;6147540;23;20174;-65
2023/02/08 06:50:21;;;;;;;85.60;22.40;;;;;;;;;;6148356;23;20097;-65
2023/02/08 06:52:50;;;;;;;84.60;25.05;;;;;;;;;;6146979;23;20064;-64
2023/02/08 06:55:23;;;;;;;99.40;27.40;;;;;;;;;;6147612;23;20021;-65
2023/02/08 06:57:53;;;;;;;91.93;25.38;;;;;;;;;;6147774;23;20040;-64
2023/02/08 07:00:27;;;;;;;93.22;27.58;;;;;;;;;;6146628;23;20064;-61
2023/02/08 07:02:54;;;;;;;84.03;25.00;;;;;;;;;;6147783;23;20030;-67
2023/02/08 07:05:28;;;;;;;115.25;28.17;;;;;;;;;;6147901;23;20021;-58
2023/02/08 07:07:55;;;;;;;104.40;25.65;;;;;;;;;;6147056;23;20554;-58
2023/02/08 07:10:23;;;;;;;83.13;25.45;;;;;;;;;;6147000;23;20422;-58
2023/02/08 07:12:56;;;;;;;106.40;27.30;;;;;;;;;;6148334;23;20109;-57
2023/02/08 07:15:23;;;;;;;117.65;29.10;;;;;;;;;;6146610;23;20412;-55
2023/02/08 07:18:04;;;;;;;114.43;28.95;;;;;;;;;;6146111;23;20035;-57
2023/02/08 07:20:38;;;;;;;125.15;29.30;;;;;;;;;;6147309;23;20027;-55
2023/02/08 07:23:11;;;;;;;144.40;32.50;;;;;;;;;;6147481;23;20100;-51
2023/02/08 07:25:38;;;;;;;142.23;33.08;;;;;;;;;;6146412;23;20081;-65
2023/02/08 07:28:06;;;;;;;131.20;31.67;;;;;;;;;;6148780;23;20029;-64
2023/02/08 07:30:39;;;;;;;151.68;33.08;;;;;;;;;;6147612;23;20093;-65
2023/02/08 07:33:07;;;;;;;150.70;33.10;;;;;;;;;;6147008;23;20411;-65
2023/02/08 07:35:40;;;;;;;167.63;35.33;;;;;;;;;;6122661;23;20028;-66
2023/02/08 07:38:07;;;;;;;150.18;33.58;;;;;;;;;;6149711;23;20334;-65
2023/02/08 07:40:41;;;;;;;131.40;33.75;;;;;;;;;;6148384;23;20021;-68
2023/02/08 07:43:09;;;;;;;;;;;;;;;;;;6150382;23;20028;-50
2023/02/08 07:45:39;;;;;;;148.57;33.55;;;;;;;;;;6148620;23;20358;-49
2023/02/08 07:48:13;;;;;;;142.13;33.63;;;;;;;;;;6149402;23;20026;-47
2023/02/08 07:50:40;;;;;;;146.45;35.90;;;;;;;;;;6149469;23;20035;-48
2023/02/08 07:53:15;;;;;;;156.18;36.90;;;;;;;;;;6148196;23;20096;-54
2023/02/08 07:55:44;;;;;;;134.85;34.20;;;;;;;;;;6148416;23;20359;-53
2023/02/08 07:58:13;;;;;;;156.10;38.13;;;;;;;;;;6150488;23;20030;-56
2023/02/08 08:00:46;;;;;;;124.97;33.45;;;;;;;;;;6149424;23;20105;-56
2023/02/08 08:03:13;;;;;;;139.23;35.80;;;;;;;;;;6148267;23;20664;-61
2023/02/08 08:05:48;;;;;;;149.45;38.20;;;;;;;;;;6149057;23;20048;-61
2023/02/08 08:08:20;;;;;;;131.15;31.48;;;;;;;;;;6149312;23;20018;-61
2023/02/08 08:10:48;;;;;;;169.93;38.90;;;;;;;;;;6148209;23;20599;-61
2023/02/08 08:13:23;;;;;;;149.40;38.97;;;;;;;;;;6148593;23;20108;-61
2023/02/08 08:15:50;;;;;;;;;;;;;;;;;;6150747;23;20027;-61
2023/02/08 08:18:30;;;;;;;159.65;34.75;;;;;;;;;;6148393;23;20262;-65
2023/02/08 08:21:04;;;;;;;136.23;37.70;;;;;;;;;;6148599;23;20092;-57
2023/02/08 08:23:38;;;;;;;140.88;36.58;;;;;;;;;;6148076;23;20021;-58
2023/02/08 08:26:10;;;;;;;146.15;39.95;;;;;;;;;;6148355;23;20355;-55
2023/02/08 08:28:37;;;;;;;133.43;37.17;;;;;;;;;;6148394;23;20044;-57
2023/02/08 08:31:16;;;;;;;154.05;38.15;;;;;;;;;;6149304;23;20092;-59
2023/02/08 08:33:49;;;;;;;;;;;;;;;;;;6149066;23;20037;-59
2023/02/08 08:36:16;;;;;;;150.15;37.35;;;;;;;;;;6148899;23;19920;-61
2023/02/08 08:38:44;;;;;;;147.02;37.72;;;;;;;;;;6148319;23;20096;-61
2023/02/08 08:41:17;;;;;;;164.50;40.72;;;;;;;;;;6147839;23;20093;-52
2023/02/08 08:43:45;;;;;;;152.23;37.97;;;;;;;;;;6148382;23;20036;-54
2023/02/08 08:46:12;;;;;;;150.90;37.53;;;;;;;;;;6148445;23;20025;-52
2023/02/08 08:48:46;;;;;;;165.30;38.50;;;;;;;;;;6148209;23;20092;-50
2023/02/08 08:51:14;;;;;;;169.00;38.75;;;;;;;;;;6147873;23;20586;-51
2023/02/08 08:53:41;;;;;;;;;;;;;;;;;;6121464;23;20060;-55
2023/02/08 08:56:14;;;;;;;162.43;38.83;;;;;;;;;;6148399;23;19921;-53
2023/02/08 08:58:42;;;;;;;148.60;38.70;;;;;;;;;;6148046;23;20181;-61
2023/02/08 09:01:16;;;;;;;205.50;41.78;;;;;;;;;;6147778;23;20053;-61
2023/02/08 09:03:44;;;;;;;;;;;;;;;;;;6148082;23;20035;-59
2023/02/08 09:06:11;;;;;;;162.55;38.50;;;;;;;;;;6149446;23;19995;-60
2023/02/08 09:08:44;;;;;;;148.40;36.80;;;;;;;;;;6147552;23;20706;-61
2023/02/08 09:11:13;;;;;;;156.68;37.85;;;;;;;;;;6148742;23;20417;-60
2023/02/08 09:13:50;;;;;;;148.70;40.72;;;;;;;;;;6146164;23;20538;-67
2023/02/08 09:16:17;;;;;;;154.90;39.70;;;;;;;;;;6148339;23;20104;-61
2023/02/08 09:18:45;;;;;;;164.85;41.33;;;;;;;;;;6148071;23;20029;-58
2023/02/08 09:21:19;;;;;;;137.40;38.22;;;;;;;;;;6148736;23;20108;-52
2023/02/08 09:23:47;;;;;;;160.75;42.55;;;;;;;;;;6121143;23;20030;-55
2023/02/08 09:26:20;;;;;;;204.75;43.97;;;;;;;;;;6148401;23;20045;-52
2023/02/08 09:28:48;;;;;;;;;;;;;;;;;;6148476;23;20029;-54
2023/02/08 09:31:23;;;;;;;169.63;40.00;;;;;;;;;;6148002;23;20370;-55
2023/02/08 09:33:51;;;;;;;165.45;41.45;;;;;;;;;;6147674;23;20028;-62
2023/02/08 09:36:19;;;;;;;167.70;41.17;;;;;;;;;;6147791;23;20112;-54
2023/02/08 09:39:01;;;;;;;165.20;39.47;;;;;;;;;;6147537;23;20032;-51
2023/02/08 09:41:29;;;;;;;147.90;36.80;;;;;;;;;;6147979;23;20025;-48
2023/02/08 09:44:19;;;;;;;153.05;39.05;;;;;;;;;;6122787;23;20032;-47
2023/02/08 09:46:51;;;;;;;159.25;39.45;;;;;;;;;;6146815;23;20081;-49
2023/02/08 09:49:37;;;;;;;138.45;40.00;;;;;;;;;;6148678;23;20037;-50
2023/02/08 09:52:10;;;;;;;173.20;40.38;;;;;;;;;;6147136;23;20487;-58
2023/02/08 09:54:49;;;;;;;151.75;37.95;;;;;;;;;;6147079;23;20109;-61
2023/02/08 09:57:19;;;;;;;152.88;36.65;;;;;;;;;;6148248;23;20022;-65
2023/02/08 10:00:07;;;;;;;201.88;41.97;;;;;;;;;;6148538;23;20024;-65
2023/02/08 10:02:41;;;;;;;134.50;36.83;;;;;;;;;;6122061;23;20022;-65
2023/02/08 10:05:18;;;;;;;139.88;36.60;;;;;;;;;;6123209;23;20435;-65
2023/02/08 10:07:45;;;;;;;144.77;39.15;;;;;;;;;;6147792;23;20380;-65
2023/02/08 10:10:22;;;;;;;144.15;36.08;;;;;;;;;;6148173;23;20100;-65
2023/02/08 10:12:59;;;;;;;119.18;35.35;;;;;;;;;;6146240;23;20064;-61
2023/02/08 10:15:43;;;;;;;142.68;37.08;;;;;;;;;;6148466;23;20021;-58
2023/02/08 10:18:33;;;;;;;152.98;39.03;;;;;;;;;;6147811;23;20036;-55
2023/02/08 10:21:25;;;;;;;154.00;36.53;;;;;;;;;;6148215;23;20340;-54
2023/02/08 10:23:59;;;;;;;;;;;;;;;;;;6147515;23;20022;-56
2023/02/08 10:26:35;;;;;;;147.73;33.53;;;;;;;;;;6147299;23;19927;-59
2023/02/08 10:29:47;;;;;;;156.48;38.13;;;;;;;;;;6148053;23;20561;-51
2023/02/08 10:32:24;;;;;;;124.32;32.05;;;;;;;;;;6085252;23;20058;-67
2023/02/08 10:35:00;;;;;;;136.43;37.33;;;;;;;;;;6085629;23;20026;-55
2023/02/08 10:37:33;;;;;;;128.82;33.65;;;;;;;;;;6122410;23;20734;-53
2023/02/08 10:40:27;;;;;;;148.32;34.72;;;;;;;;;;6147895;23;20017;-52
2023/02/08 10:43:03;;;;;;;139.48;35.38;;;;;;;;;;6136617;23;20116;-55
2023/02/08 10:46:02;;;;;;;137.98;34.53;;;;;;;;;;6147473;23;20026;-56
2023/02/08 10:48:36;;;;;;;136.02;35.83;;;;;;;;;;6124747;23;20060;-51
2023/02/08 10:51:14;;;;;;;119.20;33.55;;;;;;;;;;6147833;23;20064;-67
2023/02/08 10:53:42;;;;;;;115.35;32.30;;;;;;;;;;6146155;23;20026;-57
2023/02/08 10:56:22;;;;;;;137.40;34.08;;;;;;;;;;6147013;23;20642;-53
2023/02/08 10:58:49;;;;;;;122.07;34.22;;;;;;;;;;6148677;23;20104;-57
2023/02/08 11:01:24;;;;;;;114.03;31.73;;;;;;;;;;6147402;23;20017;-54
2023/02/08 11:04:01;;;;;;;127.45;31.92;;;;;;;;;;6147245;23;20423;-56
2023/02/08 11:06:34;;;;;;;106.90;31.80;;;;;;;;;;6147217;23;20030;-50
2023/02/08 11:09:01;;;;;;;97.13;31.17;;;;;;;;;;6146629;23;20359;-65
2023/02/08 11:11:37;;;;;;;100.20;28.23;;;;;;;;;;6148459;23;20100;-64
2023/02/08 11:14:16;;;;;;;100.57;29.02;;;;;;;;;;6148813;23;20028;-62
2023/02/08 11:16:48;;;;;;;83.93;27.40;;;;;;;;;;6149929;23;20024;-61
2023/02/08 11:19:47;;;;;;;84.90;25.92;;;;;;;;;;6149645;23;20366;-62
2023/02/08 11:22:15;;;;;;;106.05;28.52;;;;;;;;;;6148963;23;20071;-61
2023/02/08 11:24:57;;;;;;;79.60;26.92;;;;;;;;;;6149735;23;20017;-61
2023/02/08 11:27:43;;;;;;;93.43;26.15;;;;;;;;;;6149892;23;20053;-62
2023/02/08 11:30:20;;;;;;;94.32;26.73;;;;;;;;;;6148926;23;20025;-68
2023/02/08 11:32:48;;;;;;;109.68;27.58;;;;;;;;;;6149406;23;20452;-62
2023/02/08 11:35:28;;;;;;;80.32;25.33;;;;;;;;;;6149661;23;20278;-62
2023/02/08 11:37:56;;;;;;;86.20;26.48;;;;;;;;;;6149393;23;20025;-61
2023/02/08 11:40:37;;;;;;;96.78;25.80;;;;;;;;;;6149076;23;20428;-62
2023/02/08 11:43:04;;;;;;;93.97;27.02;;;;;;;;;;6149434;23;20021;-61
2023/02/08 11:45:38;;;;;;;91.88;27.30;;;;;;;;;;6149063;23;20021;-61
2023/02/08 11:48:13;;;;;;;103.43;27.02;;;;;;;;;;6148401;23;20585;-50
2023/02/08 11:50:53;;;;;;;86.55;29.88;;;;;;;;;;6123256;23;20144;-58
2023/02/08 11:53:26;;;;;;;85.65;29.75;;;;;;;;;;6148023;23;20060;-56
2023/02/08 11:56:21;;;;;;;97.78;29.20;;;;;;;;;;6150487;23;20025;-56
2023/02/08 11:58:56;;;;;;;92.07;32.13;;;;;;;;;;6122821;23;20048;-56
2023/02/08 12:01:31;;;;;;;88.82;29.08;;;;;;;;;;6148487;23;20962;-54
2023/02/08 12:04:00;;;;;;;85.20;28.63;;;;;;;;;;6148509;23;20044;-56
2023/02/08 12:06:45;;;;;;;91.38;29.65;;;;;;;;;;6148604;23;20092;-52
2023/02/08 12:09:27;;;;;;;104.43;31.48;;;;;;;;;;6149039;23;20049;-61
2023/02/08 12:12:13;;;;;;;98.95;32.25;;;;;;;;;;6149029;23;20108;-61
2023/02/08 12:14:55;;;;;;;115.38;34.50;;;;;;;;;;6147902;23;20340;-60
2023/02/08 12:17:25;;;;;;;103.47;35.30;;;;;;;;;;6147452;23;20029;-61
2023/02/08 12:20:29;;;;;;;106.88;34.75;;;;;;;;;;6149504;23;20021;-61
2023/02/08 12:23:05;;;;;;;115.47;36.63;;;;;;;;;;6140978;23;20044;-61
2023/02/08 12:26:01;;;;;;;107.43;35.95;;;;;;;;;;6148571;23;20108;-47
2023/02/08 12:28:46;;;;;;;108.22;36.60;;;;;;;;;;6148219;23;20096;-67
2023/02/08 12:31:39;;;;;;;112.50;37.33;;;;;;;;;;6148992;23;20025;-68
2023/02/08 12:34:17;;;;;;;101.43;35.80;;;;;;;;;;6149758;23;20029;-67
2023/02/08 12:42:47;;;;;;;94.10;32.65;;;;;;;;;;6148850;23;20027;-67
2023/02/08 12:45:15;;;;;;;;;;;;;;;;;;6149166;23;20080;-64
2023/02/08 12:47:53;;;;;;;90.38;32.47;;;;;;;;;;6148153;23;19916;-62
2023/02/08 12:50:39;;;;;;;88.82;32.83;;;;;;;;;;6146621;23;20025;-61
2023/02/08 12:53:29;;;;;;;95.78;35.38;;;;;;;;;;6148672;23;20026;-62
2023/02/08 12:56:02;;;;;;;103.45;34.00;;;;;;;;;;6149541;23;20018;-62
2023/02/08 12:58:40;;;;;;;93.10;34.83;;;;;;;;;;6147712;23;20021;-62
2023/02/08 13:01:13;;;;;;;107.78;34.88;;;;;;;;;;6149054;23;20155;-62
2023/02/08 13:03:56;;;;;;;106.18;34.33;;;;;;;;;;6147732;23;20061;-53
2023/02/08 13:06:29;;;;;;;104.97;34.88;;;;;;;;;;6148788;23;20069;-60
2023/02/08 13:09:07;;;;;;;101.53;34.80;;;;;;;;;;6148832;23;20030;-60
2023/02/08 13:11:44;;;;;;;93.82;34.10;;;;;;;;;;6148436;23;20049;-60
2023/02/08 13:14:39;;;;;;;98.18;35.55;;;;;;;;;;6148502;23;20067;-60
2023/02/08 13:17:12;;;;;;;94.10;33.65;;;;;;;;;;6149905;23;20084;-60
2023/02/08 13:19:56;;;;;;;104.60;36.97;;;;;;;;;;6147105;23;20226;-60
2023/02/08 13:22:30;;;;;;;118.35;40.05;;;;;;;;;;6148570;23;20022;-52
2023/02/08 13:25:13;;;;;;;116.35;38.90;;;;;;;;;;6148476;23;20053;-67
2023/02/08 13:27:40;;;;;;;103.97;36.08;;;;;;;;;;6147311;23;20080;-51
2023/02/08 13:30:18;;;;;;;102.10;36.90;;;;;;;;;;6148550;23;20065;-55
2023/02/08 13:32:46;;;;;;;91.03;35.13;;;;;;;;;;6147048;23;20104;-50
2023/02/08 13:35:25;;;;;;;101.38;37.67;;;;;;;;;;6148176;23;20024;-55
2023/02/08 13:38:01;;;;;;;90.25;34.95;;;;;;;;;;6147691;23;20032;-47
2023/02/08 13:40:36;;;;;;;100.70;36.67;;;;;;;;;;6148139;23;20120;-49
2023/02/08 13:43:05;;;;;;;97.15;36.15;;;;;;;;;;6147371;23;20028;-61
2023/02/08 13:45:37;;;;;;;99.88;37.78;;;;;;;;;;6148255;23;20048;-50
2023/02/08 13:48:12;;;;;;;97.22;35.25;;;;;;;;;;6148276;23;20025;-52
2023/02/08 13:50:55;;;;;;;104.63;37.63;;;;;;;;;;6147816;23;20052;-52
2023/02/08 13:53:39;;;;;;;100.70;38.10;;;;;;;;;;6148168;23;20060;-55
2023/02/08 13:56:10;;;;;;;91.18;36.10;;;;;;;;;;6149556;23;20026;-53
2023/02/08 13:58:47;;;;;;;103.55;37.20;;;;;;;;;;6146297;23;20104;-55
2023/02/08 14:01:16;;;;;;;88.55;30.27;;;;;;;;;;6148532;23;20558;-52
2023/02/08 14:03:44;;;;;;;98.95;34.80;;;;;;;;;;6147671;23;20056;-55
2023/02/08 14:06:20;;;;;;;91.07;32.83;;;;;;;;;;6147543;23;20100;-57
2023/02/08 14:08:59;;;;;;;101.60;33.05;;;;;;;;;;6147910;23;20430;-58
2023/02/08 14:11:44;;;;;;;83.13;31.05;;;;;;;;;;6148729;23;20025;-58
2023/02/08 14:14:26;;;;;;;72.50;28.85;;;;;;;;;;6148481;23;20566;-56
2023/02/08 14:17:12;;;;;;;82.38;26.75;;;;;;;;;;6147309;23;20399;-53
2023/02/08 14:19:58;;;;;;;80.47;25.45;;;;;;;;;;6146290;23;20389;-56
2023/02/08 14:22:27;;;;;;;64.65;24.75;;;;;;;;;;6147142;23;20351;-58
2023/02/08 14:25:17;;;;;;;74.45;26.52;;;;;;;;;;6148451;23;20108;-58
2023/02/08 14:27:50;;;;;;;72.10;25.20;;;;;;;;;;6145971;23;20057;-57
2023/02/08 14:30:31;;;;;;;68.10;25.13;;;;;;;;;;6148464;23;20072;-57
2023/02/08 14:33:01;;;;;;;64.88;26.25;;;;;;;;;;6148026;23;20021;-58
2023/02/08 14:35:37;;;;;;;56.85;22.27;;;;;;;;;;6148158;23;20049;-56
2023/02/08 14:38:39;;;;;;;60.90;22.58;;;;;;;;;;6120969;23;20047;-61
2023/02/08 14:41:33;;;;;;;67.78;22.70;;;;;;;;;;6086813;23;20049;-51
2023/02/08 14:44:26;;;;;;;62.50;22.08;;;;;;;;;;6147899;23;20037;-67
2023/02/08 14:46:53;;;;;;;60.70;21.48;;;;;;;;;;6149416;23;20686;-67
2023/02/08 14:49:28;;;;;;;52.75;23.30;;;;;;;;;;6148731;23;20021;-66
2023/02/08 14:52:03;;;;;;;64.75;21.33;;;;;;;;;;6149100;23;20112;-67
2023/02/08 14:54:41;;;;;;;55.70;21.05;;;;;;;;;;6148957;23;20025;-67
2023/02/08 14:57:24;;;;;;;63.72;25.23;;;;;;;;;;6149124;23;20026;-52
2023/02/08 14:59:59;;;;;;;57.95;21.63;;;;;;;;;;6149703;23;20631;-56
2023/02/08 15:02:30;;;;;;;47.60;17.73;;;;;;;;;;6150088;23;20028;-53
2023/02/08 15:05:03;;;;;;;49.92;23.17;;;;;;;;;;6149360;23;20032;-55
2023/02/08 15:07:36;;;;;;;49.10;22.90;;;;;;;;;;6149470;23;20037;-51